Terminal Aerodrome Forecast
Issued by NWS

Home | Current Version | Previous Version | Text Only | Print | Product List | Glossary On
Versions: 1 2 3 4 5 6 7 8 9 10 11 12 13 14 15 16 17 18 19 20 21 22 23 24 25 26 27
000
FTUS45 KGGW 231100
TAFOLF
TAF
KOLF 231126Z 2312/2412 06018KT 3SM RA BR OVC008
     FM231400 06020G30KT 6SM -RA OVC007
     FM240300 02020KT 4SM RA BR OVC012
     FM240900 32015KT 6SM -RA OVC015=

USA.gov is the U.S. government's official web portal to all federal, state and local government web resources and services.